sensor_id;sensor_type;location;lat;lon;timestamp;temperature;humidity
48752;DHT22;34544;48.836;9.174;2022-08-25T00:01:42;19.80;99.90
48752;DHT22;34544;48.836;9.174;2022-08-25T00:04:10;19.70;99.90
48752;DHT22;34544;48.836;9.174;2022-08-25T00:06:39;19.70;99.90
48752;DHT22;34544;48.836;9.174;2022-08-25T00:09:05;19.70;99.90
48752;DHT22;34544;48.836;9.174;2022-08-25T00:11:37;19.70;99.90
48752;DHT22;34544;48.836;9.174;2022-08-25T00:14:09;19.60;99.90
48752;DHT22;34544;48.836;9.174;2022-08-25T00:16:36;19.60;99.90
48752;DHT22;34544;48.836;9.174;2022-08-25T00:19:06;19.60;99.90
48752;DHT22;34544;48.836;9.174;2022-08-25T00:21:32;19.50;99.90
48752;DHT22;34544;48.836;9.174;2022-08-25T00:23:58;19.50;99.90
48752;DHT22;34544;48.836;9.174;2022-08-25T00:26:27;19.50;99.90
48752;DHT22;34544;48.836;9.174;2022-08-25T00:28:52;19.50;99.90
48752;DHT22;34544;48.836;9.174;2022-08-25T00:31:20;19.40;99.90
48752;DHT22;34544;48.836;9.174;2022-08-25T00:33:49;19.40;99.90
48752;DHT22;34544;48.836;9.174;2022-08-25T00:36:16;19.30;99.90
48752;DHT22;34544;48.836;9.174;2022-08-25T00:38:44;19.30;99.90
48752;DHT22;34544;48.836;9.174;2022-08-25T00:41:13;19.30;99.90
48752;DHT22;34544;48.836;9.174;2022-08-25T00:43:46;19.30;99.90
48752;DHT22;34544;48.836;9.174;2022-08-25T00:46:15;19.30;99.90
48752;DHT22;34544;48.836;9.174;2022-08-25T00:48:43;19.20;99.90
48752;DHT22;34544;48.836;9.174;2022-08-25T00:51:13;19.10;99.90
48752;DHT22;34544;48.836;9.174;2022-08-25T00:53:41;19.10;99.90
48752;DHT22;34544;48.836;9.174;2022-08-25T00:56:08;19.10;99.90
48752;DHT22;34544;48.836;9.174;2022-08-25T00:58:34;19.00;99.90
48752;DHT22;34544;48.836;9.174;2022-08-25T01:01:00;19.00;99.90
48752;DHT22;34544;48.836;9.174;2022-08-25T01:03:28;19.00;99.90
48752;DHT22;34544;48.836;9.174;2022-08-25T01:05:55;19.00;99.90
48752;DHT22;34544;48.836;9.174;2022-08-25T01:08:23;18.90;99.90
48752;DHT22;34544;48.836;9.174;2022-08-25T01:10:52;18.90;99.90
48752;DHT22;34544;48.836;9.174;2022-08-25T01:13:25;18.90;99.90
48752;DHT22;34544;48.836;9.174;2022-08-25T01:15:55;18.90;99.90
48752;DHT22;34544;48.836;9.174;2022-08-25T01:18:22;18.90;99.90
48752;DHT22;34544;48.836;9.174;2022-08-25T01:20:52;18.80;99.90
48752;DHT22;34544;48.836;9.174;2022-08-25T01:23:18;18.80;99.90
48752;DHT22;34544;48.836;9.174;2022-08-25T01:26:12;18.80;99.90
48752;DHT22;34544;48.836;9.174;2022-08-25T01:28:39;18.70;99.90
48752;DHT22;34544;48.836;9.174;2022-08-25T01:31:26;18.70;99.90
48752;DHT22;34544;48.836;9.174;2022-08-25T01:33:52;18.70;99.90
48752;DHT22;34544;48.836;9.174;2022-08-25T01:36:19;18.60;99.90
48752;DHT22;34544;48.836;9.174;2022-08-25T01:38:44;18.60;99.90
48752;DHT22;34544;48.836;9.174;2022-08-25T01:41:10;18.60;99.90
48752;DHT22;34544;48.836;9.174;2022-08-25T01:43:37;18.60;99.90
48752;DHT22;34544;48.836;9.174;2022-08-25T01:46:03;18.60;99.90
48752;DHT22;34544;48.836;9.174;2022-08-25T01:48:29;18.60;99.90
48752;DHT22;34544;48.836;9.174;2022-08-25T01:50:57;18.50;99.90
48752;DHT22;34544;48.836;9.174;2022-08-25T01:53:27;18.50;99.90
48752;DHT22;34544;48.836;9.174;2022-08-25T01:55:53;18.50;99.90
48752;DHT22;34544;48.836;9.174;2022-08-25T01:58:35;18.50;99.90
48752;DHT22;34544;48.836;9.174;2022-08-25T02:01:04;18.40;99.90
48752;DHT22;34544;48.836;9.174;2022-08-25T02:03:31;18.40;99.90
48752;DHT22;34544;48.836;9.174;2022-08-25T02:05:58;18.40;99.90
48752;DHT22;34544;48.836;9.174;2022-08-25T02:08:25;18.40;99.90
48752;DHT22;34544;48.836;9.174;2022-08-25T02:10:52;18.40;99.90
48752;DHT22;34544;48.836;9.174;2022-08-25T02:13:18;18.40;99.90
48752;DHT22;34544;48.836;9.174;2022-08-25T02:15:47;18.30;99.90
48752;DHT22;34544;48.836;9.174;2022-08-25T02:18:13;18.30;99.90
48752;DHT22;34544;48.836;9.174;2022-08-25T02:20:40;18.30;99.90
48752;DHT22;34544;48.836;9.174;2022-08-25T02:23:06;18.20;99.90
48752;DHT22;34544;48.836;9.174;2022-08-25T02:25:32;18.20;99.90
48752;DHT22;34544;48.836;9.174;2022-08-25T02:27:58;18.20;99.90
48752;DHT22;34544;48.836;9.174;2022-08-25T02:30:24;18.20;99.90
48752;DHT22;34544;48.836;9.174;2022-08-25T02:32:50;18.20;99.90
48752;DHT22;34544;48.836;9.174;2022-08-25T02:35:16;18.20;99.90
48752;DHT22;34544;48.836;9.174;2022-08-25T02:37:41;18.20;99.90
48752;DHT22;34544;48.836;9.174;2022-08-25T02:40:08;18.20;99.90
48752;DHT22;34544;48.836;9.174;2022-08-25T02:42:34;18.10;99.90
48752;DHT22;34544;48.836;9.174;2022-08-25T02:44:59;18.10;99.90
48752;DHT22;34544;48.836;9.174;2022-08-25T02:47:25;18.10;99.90
48752;DHT22;34544;48.836;9.174;2022-08-25T02:49:51;18.10;99.90
48752;DHT22;34544;48.836;9.174;2022-08-25T02:52:17;18.00;99.90
48752;DHT22;34544;48.836;9.174;2022-08-25T02:54:43;18.00;99.90
48752;DHT22;34544;48.836;9.174;2022-08-25T02:57:09;18.00;99.90
48752;DHT22;34544;48.836;9.174;2022-08-25T02:59:36;18.00;99.90
48752;DHT22;34544;48.836;9.174;2022-08-25T03:02:03;18.00;99.90
48752;DHT22;34544;48.836;9.174;2022-08-25T03:04:28;17.90;99.90
48752;DHT22;34544;48.836;9.174;2022-08-25T03:06:55;17.90;99.90
48752;DHT22;34544;48.836;9.174;2022-08-25T03:09:21;17.90;99.90
48752;DHT22;34544;48.836;9.174;2022-08-25T03:11:47;17.80;99.90
48752;DHT22;34544;48.836;9.174;2022-08-25T03:14:14;17.80;99.90
48752;DHT22;34544;48.836;9.174;2022-08-25T03:16:39;17.80;99.90
48752;DHT22;34544;48.836;9.174;2022-08-25T03:19:06;17.80;99.90
48752;DHT22;34544;48.836;9.174;2022-08-25T03:21:32;17.80;99.90
48752;DHT22;34544;48.836;9.174;2022-08-25T03:23:58;17.70;99.90
48752;DHT22;34544;48.836;9.174;2022-08-25T03:26:24;17.70;99.90
48752;DHT22;34544;48.836;9.174;2022-08-25T03:29:08;17.70;99.90
48752;DHT22;34544;48.836;9.174;2022-08-25T03:31:35;17.70;99.90
48752;DHT22;34544;48.836;9.174;2022-08-25T03:34:01;17.70;99.90
48752;DHT22;34544;48.836;9.174;2022-08-25T03:36:27;17.60;99.90
48752;DHT22;34544;48.836;9.174;2022-08-25T03:38:53;17.60;99.90
48752;DHT22;34544;48.836;9.174;2022-08-25T03:41:23;17.60;99.90
48752;DHT22;34544;48.836;9.174;2022-08-25T03:43:50;17.60;99.90
48752;DHT22;34544;48.836;9.174;2022-08-25T03:46:22;17.50;99.90
48752;DHT22;34544;48.836;9.174;2022-08-25T03:48:49;17.50;99.90
48752;DHT22;34544;48.836;9.174;2022-08-25T03:51:33;17.50;99.90
48752;DHT22;34544;48.836;9.174;2022-08-25T03:54:00;17.50;99.90
48752;DHT22;34544;48.836;9.174;2022-08-25T03:56:26;17.50;99.90
48752;DHT22;34544;48.836;9.174;2022-08-25T03:58:54;17.40;99.90
48752;DHT22;34544;48.836;9.174;2022-08-25T04:01:20;17.30;99.90
48752;DHT22;34544;48.836;9.174;2022-08-25T04:03:46;17.30;99.90
48752;DHT22;34544;48.836;9.174;2022-08-25T04:06:14;17.30;99.90
48752;DHT22;34544;48.836;9.174;2022-08-25T04:08:39;17.30;99.90
48752;DHT22;34544;48.836;9.174;2022-08-25T04:11:12;17.30;99.90
48752;DHT22;34544;48.836;9.174;2022-08-25T04:13:39;17.30;99.90
48752;DHT22;34544;48.836;9.174;2022-08-25T04:16:14;17.30;99.90
48752;DHT22;34544;48.836;9.174;2022-08-25T04:18:41;17.20;99.90
48752;DHT22;34544;48.836;9.174;2022-08-25T04:21:08;17.20;99.90
48752;DHT22;34544;48.836;9.174;2022-08-25T04:23:38;17.20;99.90
48752;DHT22;34544;48.836;9.174;2022-08-25T04:26:14;17.20;99.90
48752;DHT22;34544;48.836;9.174;2022-08-25T04:28:40;17.20;99.90
48752;DHT22;34544;48.836;9.174;2022-08-25T04:31:08;17.20;99.90
48752;DHT22;34544;48.836;9.174;2022-08-25T04:33:35;17.20;99.90
48752;DHT22;34544;48.836;9.174;2022-08-25T04:36:02;17.20;99.90
48752;DHT22;34544;48.836;9.174;2022-08-25T04:38:28;17.20;99.90
48752;DHT22;34544;48.836;9.174;2022-08-25T04:40:56;17.20;99.90
48752;DHT22;34544;48.836;9.174;2022-08-25T04:43:22;17.20;99.90
48752;DHT22;34544;48.836;9.174;2022-08-25T04:45:48;17.20;99.90
48752;DHT22;34544;48.836;9.174;2022-08-25T04:48:13;17.20;99.90
48752;DHT22;34544;48.836;9.174;2022-08-25T04:50:39;17.20;99.90
48752;DHT22;34544;48.836;9.174;2022-08-25T04:53:05;17.20;99.90
48752;DHT22;34544;48.836;9.174;2022-08-25T04:55:31;17.20;99.90
48752;DHT22;34544;48.836;9.174;2022-08-25T04:57:56;17.20;99.90
48752;DHT22;34544;48.836;9.174;2022-08-25T05:00:22;17.20;99.90
48752;DHT22;34544;48.836;9.174;2022-08-25T05:02:47;17.20;99.90
48752;DHT22;34544;48.836;9.174;2022-08-25T05:05:13;17.20;99.90
48752;DHT22;34544;48.836;9.174;2022-08-25T05:07:39;17.20;99.90
48752;DHT22;34544;48.836;9.174;2022-08-25T05:10:05;17.30;99.90
48752;DHT22;34544;48.836;9.174;2022-08-25T05:12:31;17.30;99.90
48752;DHT22;34544;48.836;9.174;2022-08-25T05:14:57;17.40;99.90
48752;DHT22;34544;48.836;9.174;2022-08-25T05:17:43;17.40;99.90
48752;DHT22;34544;48.836;9.174;2022-08-25T05:20:08;17.50;99.90
48752;DHT22;34544;48.836;9.174;2022-08-25T05:22:34;17.60;99.90
48752;DHT22;34544;48.836;9.174;2022-08-25T05:25:00;17.70;99.90
48752;DHT22;34544;48.836;9.174;2022-08-25T05:27:25;17.70;99.90
48752;DHT22;34544;48.836;9.174;2022-08-25T05:29:51;17.80;99.90
48752;DHT22;34544;48.836;9.174;2022-08-25T05:32:17;18.00;99.90
48752;DHT22;34544;48.836;9.174;2022-08-25T05:34:42;18.10;99.90
48752;DHT22;34544;48.836;9.174;2022-08-25T05:37:08;18.10;99.90
48752;DHT22;34544;48.836;9.174;2022-08-25T05:39:33;18.20;99.90
48752;DHT22;34544;48.836;9.174;2022-08-25T05:41:59;18.30;99.90
48752;DHT22;34544;48.836;9.174;2022-08-25T05:44:25;18.40;99.90
48752;DHT22;34544;48.836;9.174;2022-08-25T05:46:51;18.50;99.90
48752;DHT22;34544;48.836;9.174;2022-08-25T05:49:17;18.60;99.90
48752;DHT22;34544;48.836;9.174;2022-08-25T05:51:43;18.70;99.90
48752;DHT22;34544;48.836;9.174;2022-08-25T05:54:08;18.70;99.90
48752;DHT22;34544;48.836;9.174;2022-08-25T05:56:34;18.70;99.90
48752;DHT22;34544;48.836;9.174;2022-08-25T05:59:00;18.70;99.90
48752;DHT22;34544;48.836;9.174;2022-08-25T06:01:27;18.70;99.90
48752;DHT22;34544;48.836;9.174;2022-08-25T06:04:14;18.80;99.90
48752;DHT22;34544;48.836;9.174;2022-08-25T06:06:40;18.90;99.90
48752;DHT22;34544;48.836;9.174;2022-08-25T06:09:05;18.90;99.90
48752;DHT22;34544;48.836;9.174;2022-08-25T06:11:33;19.00;99.90
48752;DHT22;34544;48.836;9.174;2022-08-25T06:13:59;19.00;99.90
48752;DHT22;34544;48.836;9.174;2022-08-25T06:16:24;19.10;99.90
48752;DHT22;34544;48.836;9.174;2022-08-25T06:18:50;19.20;99.90
48752;DHT22;34544;48.836;9.174;2022-08-25T06:21:16;19.30;99.90
48752;DHT22;34544;48.836;9.174;2022-08-25T06:23:43;19.40;99.90
48752;DHT22;34544;48.836;9.174;2022-08-25T06:26:12;19.50;99.90
48752;DHT22;34544;48.836;9.174;2022-08-25T06:28:38;19.60;99.90
48752;DHT22;34544;48.836;9.174;2022-08-25T06:31:04;19.70;99.90
48752;DHT22;34544;48.836;9.174;2022-08-25T06:33:30;19.90;99.90
48752;DHT22;34544;48.836;9.174;2022-08-25T06:35:56;20.00;99.90
48752;DHT22;34544;48.836;9.174;2022-08-25T06:38:23;20.10;99.90
48752;DHT22;34544;48.836;9.174;2022-08-25T06:40:49;20.30;99.90
48752;DHT22;34544;48.836;9.174;2022-08-25T06:43:17;20.40;99.90
48752;DHT22;34544;48.836;9.174;2022-08-25T06:45:42;20.50;99.90
48752;DHT22;34544;48.836;9.174;2022-08-25T06:48:09;20.70;99.90
48752;DHT22;34544;48.836;9.174;2022-08-25T06:50:37;20.80;99.90
48752;DHT22;34544;48.836;9.174;2022-08-25T06:53:04;21.00;99.90
48752;DHT22;34544;48.836;9.174;2022-08-25T06:55:30;21.10;99.90
48752;DHT22;34544;48.836;9.174;2022-08-25T06:57:55;21.20;99.90
48752;DHT22;34544;48.836;9.174;2022-08-25T07:00:21;21.30;99.90
48752;DHT22;34544;48.836;9.174;2022-08-25T07:02:47;21.30;99.90
48752;DHT22;34544;48.836;9.174;2022-08-25T07:05:13;21.50;99.90
48752;DHT22;34544;48.836;9.174;2022-08-25T07:07:39;21.60;99.90
48752;DHT22;34544;48.836;9.174;2022-08-25T07:10:05;21.90;99.90
48752;DHT22;34544;48.836;9.174;2022-08-25T07:12:31;22.10;99.90
48752;DHT22;34544;48.836;9.174;2022-08-25T07:14:56;22.50;99.90
48752;DHT22;34544;48.836;9.174;2022-08-25T07:17:22;22.80;99.90
48752;DHT22;34544;48.836;9.174;2022-08-25T07:19:48;23.10;99.90
48752;DHT22;34544;48.836;9.174;2022-08-25T07:22:14;23.50;99.90
48752;DHT22;34544;48.836;9.174;2022-08-25T07:24:40;23.70;99.90
48752;DHT22;34544;48.836;9.174;2022-08-25T07:27:06;24.00;99.90
48752;DHT22;34544;48.836;9.174;2022-08-25T07:29:32;24.30;99.90
48752;DHT22;34544;48.836;9.174;2022-08-25T07:32:01;24.60;99.90
48752;DHT22;34544;48.836;9.174;2022-08-25T07:34:27;24.80;99.90
48752;DHT22;34544;48.836;9.174;2022-08-25T07:37:11;25.00;99.90
48752;DHT22;34544;48.836;9.174;2022-08-25T07:39:37;25.20;99.90
48752;DHT22;34544;48.836;9.174;2022-08-25T07:42:03;25.30;99.90
48752;DHT22;34544;48.836;9.174;2022-08-25T07:44:29;25.40;99.90
48752;DHT22;34544;48.836;9.174;2022-08-25T07:46:55;25.60;99.90
48752;DHT22;34544;48.836;9.174;2022-08-25T07:49:23;25.70;99.90
48752;DHT22;34544;48.836;9.174;2022-08-25T07:51:53;25.90;99.90
48752;DHT22;34544;48.836;9.174;2022-08-25T07:54:19;26.20;99.90
48752;DHT22;34544;48.836;9.174;2022-08-25T07:56:45;26.30;99.90
48752;DHT22;34544;48.836;9.174;2022-08-25T07:59:10;26.40;99.90
48752;DHT22;34544;48.836;9.174;2022-08-25T08:01:37;26.50;99.90
48752;DHT22;34544;48.836;9.174;2022-08-25T08:04:03;26.50;99.90
48752;DHT22;34544;48.836;9.174;2022-08-25T08:06:29;26.60;99.90
48752;DHT22;34544;48.836;9.174;2022-08-25T08:08:55;26.70;99.90
48752;DHT22;34544;48.836;9.174;2022-08-25T08:11:29;26.90;99.90
48752;DHT22;34544;48.836;9.174;2022-08-25T08:13:56;27.20;99.90
48752;DHT22;34544;48.836;9.174;2022-08-25T08:16:24;27.60;99.90
48752;DHT22;34544;48.836;9.174;2022-08-25T08:18:50;27.90;99.90
48752;DHT22;34544;48.836;9.174;2022-08-25T08:21:20;28.10;99.90
48752;DHT22;34544;48.836;9.174;2022-08-25T08:23:47;28.30;99.90
48752;DHT22;34544;48.836;9.174;2022-08-25T08:26:14;28.50;99.90
48752;DHT22;34544;48.836;9.174;2022-08-25T08:28:39;28.60;99.90
48752;DHT22;34544;48.836;9.174;2022-08-25T08:31:05;28.90;99.80
48752;DHT22;34544;48.836;9.174;2022-08-25T08:33:33;29.10;99.00
48752;DHT22;34544;48.836;9.174;2022-08-25T08:36:00;29.20;98.80
48752;DHT22;34544;48.836;9.174;2022-08-25T08:38:26;29.30;98.40
48752;DHT22;34544;48.836;9.174;2022-08-25T08:44:44;29.70;97.60
48752;DHT22;34544;48.836;9.174;2022-08-25T08:52:50;29.50;96.20
48752;DHT22;34544;48.836;9.174;2022-08-25T08:55:30;29.60;96.20
48752;DHT22;34544;48.836;9.174;2022-08-25T08:57:58;29.90;96.50
48752;DHT22;34544;48.836;9.174;2022-08-25T09:00:26;30.20;95.90
48752;DHT22;34544;48.836;9.174;2022-08-25T09:05:28;30.90;94.30
48752;DHT22;34544;48.836;9.174;2022-08-25T09:08:10;31.10;93.80
48752;DHT22;34544;48.836;9.174;2022-08-25T09:10:57;31.10;93.30
48752;DHT22;34544;48.836;9.174;2022-08-25T09:16:30;31.40;92.80
48752;DHT22;34544;48.836;9.174;2022-08-25T09:27:45;32.00;91.90
48752;DHT22;34544;48.836;9.174;2022-08-25T09:30:15;32.30;90.50
48752;DHT22;34544;48.836;9.174;2022-08-25T09:32:51;32.30;90.50
48752;DHT22;34544;48.836;9.174;2022-08-25T09:35:27;32.40;90.20
48752;DHT22;34544;48.836;9.174;2022-08-25T09:38:02;32.70;88.10
48752;DHT22;34544;48.836;9.174;2022-08-25T09:40:37;32.80;89.20
48752;DHT22;34544;48.836;9.174;2022-08-25T09:43:08;33.10;88.50
48752;DHT22;34544;48.836;9.174;2022-08-25T09:45:45;33.30;85.60
48752;DHT22;34544;48.836;9.174;2022-08-25T09:50:53;33.80;84.40
48752;DHT22;34544;48.836;9.174;2022-08-25T09:53:21;33.60;83.80
48752;DHT22;34544;48.836;9.174;2022-08-25T09:55:54;33.40;85.00
48752;DHT22;34544;48.836;9.174;2022-08-25T09:58:23;33.60;84.80
48752;DHT22;34544;48.836;9.174;2022-08-25T10:01:14;33.80;83.00
48752;DHT22;34544;48.836;9.174;2022-08-25T10:04:01;34.20;82.10
48752;DHT22;34544;48.836;9.174;2022-08-25T10:06:33;33.70;81.80
48752;DHT22;34544;48.836;9.174;2022-08-25T10:09:05;33.90;82.70
48752;DHT22;34544;48.836;9.174;2022-08-25T10:11:36;34.30;82.30
48752;DHT22;34544;48.836;9.174;2022-08-25T10:16:49;34.80;79.40
48752;DHT22;34544;48.836;9.174;2022-08-25T10:22:05;34.60;81.10
48752;DHT22;34544;48.836;9.174;2022-08-25T10:24:31;35.00;78.80
48752;DHT22;34544;48.836;9.174;2022-08-25T10:27:03;35.30;78.10
48752;DHT22;34544;48.836;9.174;2022-08-25T10:33:02;35.40;77.70
48752;DHT22;34544;48.836;9.174;2022-08-25T10:35:51;35.50;77.00
48752;DHT22;34544;48.836;9.174;2022-08-25T10:38:35;35.70;78.40
48752;DHT22;34544;48.836;9.174;2022-08-25T10:43:40;36.50;75.50
48752;DHT22;34544;48.836;9.174;2022-08-25T10:46:25;36.70;74.80
48752;DHT22;34544;48.836;9.174;2022-08-25T10:49:03;36.60;74.20
48752;DHT22;34544;48.836;9.174;2022-08-25T10:59:15;37.30;73.50
48752;DHT22;34544;48.836;9.174;2022-08-25T11:04:40;36.60;74.50
48752;DHT22;34544;48.836;9.174;2022-08-25T11:07:25;36.20;74.90
48752;DHT22;34544;48.836;9.174;2022-08-25T11:09:59;35.90;75.90
48752;DHT22;34544;48.836;9.174;2022-08-25T11:12:34;36.30;77.00
48752;DHT22;34544;48.836;9.174;2022-08-25T11:15:11;36.70;74.90
48752;DHT22;34544;48.836;9.174;2022-08-25T11:20:07;35.30;75.90
48752;DHT22;34544;48.836;9.174;2022-08-25T11:22:53;35.00;77.70
48752;DHT22;34544;48.836;9.174;2022-08-25T11:25:44;35.00;76.20
48752;DHT22;34544;48.836;9.174;2022-08-25T11:28:31;35.40;75.90
48752;DHT22;34544;48.836;9.174;2022-08-25T11:31:00;35.70;76.20
48752;DHT22;34544;48.836;9.174;2022-08-25T11:33:28;35.60;74.50
48752;DHT22;34544;48.836;9.174;2022-08-25T11:38:47;35.80;74.10
48752;DHT22;34544;48.836;9.174;2022-08-25T11:50:06;38.80;70.80
48752;DHT22;34544;48.836;9.174;2022-08-25T11:57:46;40.40;67.40
48752;DHT22;34544;48.836;9.174;2022-08-25T12:00:42;40.40;66.20
48752;DHT22;34544;48.836;9.174;2022-08-25T12:11:54;38.30;67.10
48752;DHT22;34544;48.836;9.174;2022-08-25T12:30:12;38.70;68.00
48752;DHT22;34544;48.836;9.174;2022-08-25T12:38:11;36.80;68.50
48752;DHT22;34544;48.836;9.174;2022-08-25T12:40:52;35.80;70.30
48752;DHT22;34544;48.836;9.174;2022-08-25T12:43:51;35.00;70.70
48752;DHT22;34544;48.836;9.174;2022-08-25T12:54:23;37.20;69.40
48752;DHT22;34544;48.836;9.174;2022-08-25T12:56:55;37.50;69.20
48752;DHT22;34544;48.836;9.174;2022-08-25T12:59:23;37.50;68.20
48752;DHT22;34544;48.836;9.174;2022-08-25T13:07:46;38.00;66.60
48752;DHT22;34544;48.836;9.174;2022-08-25T13:12:59;36.80;68.60
48752;DHT22;34544;48.836;9.174;2022-08-25T13:15:34;36.20;68.50
48752;DHT22;34544;48.836;9.174;2022-08-25T13:20:41;35.30;70.20
48752;DHT22;34544;48.836;9.174;2022-08-25T13:23:08;35.70;69.30
48752;DHT22;34544;48.836;9.174;2022-08-25T13:25:39;36.30;68.40
48752;DHT22;34544;48.836;9.174;2022-08-25T13:28:34;37.40;66.70
48752;DHT22;34544;48.836;9.174;2022-08-25T13:31:18;38.30;66.40
48752;DHT22;34544;48.836;9.174;2022-08-25T13:33:52;38.50;65.20
48752;DHT22;34544;48.836;9.174;2022-08-25T13:36:18;38.20;66.00
48752;DHT22;34544;48.836;9.174;2022-08-25T13:39:14;37.90;65.00
48752;DHT22;34544;48.836;9.174;2022-08-25T13:41:52;37.10;64.80
48752;DHT22;34544;48.836;9.174;2022-08-25T13:44:21;36.40;65.90
48752;DHT22;34544;48.836;9.174;2022-08-25T13:47:23;36.10;68.50
48752;DHT22;34544;48.836;9.174;2022-08-25T13:50:17;35.90;67.20
48752;DHT22;34544;48.836;9.174;2022-08-25T13:52:53;35.30;67.90
48752;DHT22;34544;48.836;9.174;2022-08-25T13:55:24;34.70;69.10
48752;DHT22;34544;48.836;9.174;2022-08-25T13:57:51;34.00;70.10
48752;DHT22;34544;48.836;9.174;2022-08-25T14:00:37;33.40;71.00
48752;DHT22;34544;48.836;9.174;2022-08-25T14:03:04;33.30;72.30
48752;DHT22;34544;48.836;9.174;2022-08-25T14:08:02;34.10;71.50
48752;DHT22;34544;48.836;9.174;2022-08-25T14:10:42;34.20;72.10
48752;DHT22;34544;48.836;9.174;2022-08-25T14:13:14;34.60;70.20
48752;DHT22;34544;48.836;9.174;2022-08-25T14:15:42;35.50;69.50
48752;DHT22;34544;48.836;9.174;2022-08-25T14:18:20;36.40;67.20
48752;DHT22;34544;48.836;9.174;2022-08-25T14:20:49;37.30;67.10
48752;DHT22;34544;48.836;9.174;2022-08-25T14:23:21;38.20;65.10
48752;DHT22;34544;48.836;9.174;2022-08-25T14:25:49;38.30;65.50
48752;DHT22;34544;48.836;9.174;2022-08-25T14:28:17;37.90;65.00
48752;DHT22;34544;48.836;9.174;2022-08-25T14:30:49;37.50;66.70
48752;DHT22;34544;48.836;9.174;2022-08-25T14:33:18;36.80;66.40
48752;DHT22;34544;48.836;9.174;2022-08-25T14:35:47;36.00;67.80
48752;DHT22;34544;48.836;9.174;2022-08-25T14:38:14;35.40;68.80
48752;DHT22;34544;48.836;9.174;2022-08-25T14:40:40;34.80;69.50
48752;DHT22;34544;48.836;9.174;2022-08-25T14:43:06;34.40;70.00
48752;DHT22;34544;48.836;9.174;2022-08-25T14:45:35;33.90;70.40
48752;DHT22;34544;48.836;9.174;2022-08-25T14:50:33;33.20;71.60
48752;DHT22;34544;48.836;9.174;2022-08-25T14:52:59;33.00;72.30
48752;DHT22;34544;48.836;9.174;2022-08-25T14:55:25;32.80;73.10
48752;DHT22;34544;48.836;9.174;2022-08-25T14:57:51;32.70;73.70
48752;DHT22;34544;48.836;9.174;2022-08-25T15:00:17;32.70;74.10
48752;DHT22;34544;48.836;9.174;2022-08-25T15:02:46;33.10;72.00
48752;DHT22;34544;48.836;9.174;2022-08-25T15:05:15;33.70;71.80
48752;DHT22;34544;48.836;9.174;2022-08-25T15:07:43;34.30;70.10
48752;DHT22;34544;48.836;9.174;2022-08-25T15:10:27;34.90;70.20
48752;DHT22;34544;48.836;9.174;2022-08-25T15:12:53;35.70;69.30
48752;DHT22;34544;48.836;9.174;2022-08-25T15:15:19;35.90;67.40
48752;DHT22;34544;48.836;9.174;2022-08-25T15:17:45;35.60;67.90
48752;DHT22;34544;48.836;9.174;2022-08-25T15:20:13;35.00;68.30
48752;DHT22;34544;48.836;9.174;2022-08-25T15:22:39;34.60;68.90
48752;DHT22;34544;48.836;9.174;2022-08-25T15:25:05;33.90;70.10
48752;DHT22;34544;48.836;9.174;2022-08-25T15:27:31;33.30;70.50
48752;DHT22;34544;48.836;9.174;2022-08-25T15:29:57;32.80;71.80
48752;DHT22;34544;48.836;9.174;2022-08-25T15:32:23;32.50;72.20
48752;DHT22;34544;48.836;9.174;2022-08-25T15:34:49;32.80;73.00
48752;DHT22;34544;48.836;9.174;2022-08-25T15:37:16;33.30;71.40
48752;DHT22;34544;48.836;9.174;2022-08-25T15:39:43;34.10;71.30
48752;DHT22;34544;48.836;9.174;2022-08-25T15:42:10;34.90;69.90
48752;DHT22;34544;48.836;9.174;2022-08-25T15:44:41;35.30;68.30
48752;DHT22;34544;48.836;9.174;2022-08-25T15:47:08;35.90;67.90
48752;DHT22;34544;48.836;9.174;2022-08-25T15:49:34;36.30;67.80
48752;DHT22;34544;48.836;9.174;2022-08-25T15:52:00;36.30;67.00
48752;DHT22;34544;48.836;9.174;2022-08-25T15:54:27;36.20;67.00
48752;DHT22;34544;48.836;9.174;2022-08-25T15:56:54;35.90;67.30
48752;DHT22;34544;48.836;9.174;2022-08-25T15:59:20;35.60;68.50
48752;DHT22;34544;48.836;9.174;2022-08-25T16:01:46;35.10;67.70
48752;DHT22;34544;48.836;9.174;2022-08-25T16:04:13;34.70;68.80
48752;DHT22;34544;48.836;9.174;2022-08-25T16:06:39;34.20;70.60
48752;DHT22;34544;48.836;9.174;2022-08-25T16:09:05;33.60;69.20
48752;DHT22;34544;48.836;9.174;2022-08-25T16:11:32;33.20;70.10
48752;DHT22;34544;48.836;9.174;2022-08-25T16:14:03;33.10;71.00
48752;DHT22;34544;48.836;9.174;2022-08-25T16:16:30;33.30;70.00
48752;DHT22;34544;48.836;9.174;2022-08-25T16:18:56;33.50;69.90
48752;DHT22;34544;48.836;9.174;2022-08-25T16:21:28;33.60;69.70
48752;DHT22;34544;48.836;9.174;2022-08-25T16:24:01;33.60;69.80
48752;DHT22;34544;48.836;9.174;2022-08-25T16:26:27;33.80;69.70
48752;DHT22;34544;48.836;9.174;2022-08-25T16:28:53;34.10;69.40
48752;DHT22;34544;48.836;9.174;2022-08-25T16:31:20;34.40;70.00
48752;DHT22;34544;48.836;9.174;2022-08-25T16:33:45;34.70;68.50
48752;DHT22;34544;48.836;9.174;2022-08-25T16:36:15;35.00;69.10
48752;DHT22;34544;48.836;9.174;2022-08-25T16:38:43;35.20;68.10
48752;DHT22;34544;48.836;9.174;2022-08-25T16:41:13;35.20;67.90
48752;DHT22;34544;48.836;9.174;2022-08-25T16:43:39;35.20;67.90
48752;DHT22;34544;48.836;9.174;2022-08-25T16:46:08;35.30;68.50
48752;DHT22;34544;48.836;9.174;2022-08-25T16:48:34;35.50;68.50
48752;DHT22;34544;48.836;9.174;2022-08-25T16:51:05;35.60;68.50
48752;DHT22;34544;48.836;9.174;2022-08-25T16:53:31;35.70;68.10
48752;DHT22;34544;48.836;9.174;2022-08-25T16:56:15;35.80;67.80
48752;DHT22;34544;48.836;9.174;2022-08-25T16:58:41;35.80;67.90
48752;DHT22;34544;48.836;9.174;2022-08-25T17:01:08;35.80;68.30
48752;DHT22;34544;48.836;9.174;2022-08-25T17:03:38;35.90;68.30
48752;DHT22;34544;48.836;9.174;2022-08-25T17:06:05;35.70;67.40
48752;DHT22;34544;48.836;9.174;2022-08-25T17:08:31;35.60;68.00
48752;DHT22;34544;48.836;9.174;2022-08-25T17:13:32;35.40;68.10
48752;DHT22;34544;48.836;9.174;2022-08-25T17:15:58;35.10;67.80
48752;DHT22;34544;48.836;9.174;2022-08-25T17:18:27;35.00;67.80
48752;DHT22;34544;48.836;9.174;2022-08-25T17:21:19;34.90;68.50
48752;DHT22;34544;48.836;9.174;2022-08-25T17:23:46;34.70;68.90
48752;DHT22;34544;48.836;9.174;2022-08-25T17:26:14;34.40;68.60
48752;DHT22;34544;48.836;9.174;2022-08-25T17:28:41;34.20;68.90
48752;DHT22;34544;48.836;9.174;2022-08-25T17:31:09;34.10;68.90
48752;DHT22;34544;48.836;9.174;2022-08-25T17:33:36;33.80;68.90
48752;DHT22;34544;48.836;9.174;2022-08-25T17:36:02;33.60;69.90
48752;DHT22;34544;48.836;9.174;2022-08-25T17:38:29;33.40;70.60
48752;DHT22;34544;48.836;9.174;2022-08-25T17:40:57;33.10;71.40
48752;DHT22;34544;48.836;9.174;2022-08-25T17:43:27;32.80;72.10
48752;DHT22;34544;48.836;9.174;2022-08-25T17:45:54;32.40;73.10
48752;DHT22;34544;48.836;9.174;2022-08-25T17:48:22;32.00;73.60